sensor_id;sensor_type;location;lat;lon;timestamp;P1;durP1;ratioP1;P2;durP2;ratioP2
19521;SDS011;9905;52.126;5.596;2023-09-19T00:00:25;11.00;;;9.25;;
19521;SDS011;9905;52.126;5.596;2023-09-19T00:02:53;11.60;;;10.80;;
19521;SDS011;9905;52.126;5.596;2023-09-19T00:05:20;10.38;;;9.93;;
19521;SDS011;9905;52.126;5.596;2023-09-19T00:07:49;9.75;;;8.85;;
19521;SDS011;9905;52.126;5.596;2023-09-19T00:10:18;9.68;;;9.07;;
19521;SDS011;9905;52.126;5.596;2023-09-19T00:12:47;9.73;;;9.23;;
19521;SDS011;9905;52.126;5.596;2023-09-19T00:15:15;9.23;;;8.80;;
19521;SDS011;9905;52.126;5.596;2023-09-19T00:17:42;10.95;;;10.18;;
19521;SDS011;9905;52.126;5.596;2023-09-19T00:20:10;10.45;;;9.90;;
19521;SDS011;9905;52.126;5.596;2023-09-19T00:22:39;9.05;;;8.60;;
19521;SDS011;9905;52.126;5.596;2023-09-19T00:25:06;10.50;;;9.85;;
19521;SDS011;9905;52.126;5.596;2023-09-19T00:27:33;10.40;;;9.88;;
19521;SDS011;9905;52.126;5.596;2023-09-19T00:30:00;10.77;;;9.73;;
19521;SDS011;9905;52.126;5.596;2023-09-19T00:32:30;10.30;;;9.52;;
19521;SDS011;9905;52.126;5.596;2023-09-19T00:34:57;9.32;;;8.82;;
19521;SDS011;9905;52.126;5.596;2023-09-19T00:37:24;9.55;;;9.25;;
19521;SDS011;9905;52.126;5.596;2023-09-19T00:39:51;10.27;;;9.52;;
19521;SDS011;9905;52.126;5.596;2023-09-19T00:42:18;9.93;;;9.07;;
19521;SDS011;9905;52.126;5.596;2023-09-19T00:44:45;9.60;;;8.98;;
19521;SDS011;9905;52.126;5.596;2023-09-19T00:47:12;9.38;;;8.90;;
19521;SDS011;9905;52.126;5.596;2023-09-19T00:49:44;9.20;;;8.90;;
19521;SDS011;9905;52.126;5.596;2023-09-19T00:52:14;9.23;;;8.73;;
19521;SDS011;9905;52.126;5.596;2023-09-19T00:54:44;9.90;;;9.48;;
19521;SDS011;9905;52.126;5.596;2023-09-19T00:57:12;9.82;;;9.23;;
19521;SDS011;9905;52.126;5.596;2023-09-19T00:59:40;9.45;;;9.13;;
19521;SDS011;9905;52.126;5.596;2023-09-19T01:02:07;10.35;;;9.85;;
19521;SDS011;9905;52.126;5.596;2023-09-19T01:04:34;11.65;;;10.93;;
19521;SDS011;9905;52.126;5.596;2023-09-19T01:07:02;10.13;;;9.50;;
19521;SDS011;9905;52.126;5.596;2023-09-19T01:09:30;10.88;;;10.38;;
19521;SDS011;9905;52.126;5.596;2023-09-19T01:11:57;10.75;;;10.10;;
19521;SDS011;9905;52.126;5.596;2023-09-19T01:14:29;11.25;;;10.65;;
19521;SDS011;9905;52.126;5.596;2023-09-19T01:17:09;11.52;;;10.63;;
19521;SDS011;9905;52.126;5.596;2023-09-19T01:19:58;11.00;;;10.32;;
19521;SDS011;9905;52.126;5.596;2023-09-19T01:22:45;10.88;;;10.27;;
19521;SDS011;9905;52.126;5.596;2023-09-19T01:28:34;12.50;;;11.65;;
19521;SDS011;9905;52.126;5.596;2023-09-19T01:31:13;11.77;;;11.18;;
19521;SDS011;9905;52.126;5.596;2023-09-19T01:33:53;11.10;;;10.40;;
19521;SDS011;9905;52.126;5.596;2023-09-19T01:36:24;12.40;;;11.73;;
19521;SDS011;9905;52.126;5.596;2023-09-19T01:38:55;13.10;;;11.13;;
19521;SDS011;9905;52.126;5.596;2023-09-19T01:41:31;11.95;;;11.32;;
19521;SDS011;9905;52.126;5.596;2023-09-19T01:44:05;13.40;;;12.60;;
19521;SDS011;9905;52.126;5.596;2023-09-19T01:46:37;12.77;;;12.07;;
19521;SDS011;9905;52.126;5.596;2023-09-19T01:49:10;13.60;;;12.70;;
19521;SDS011;9905;52.126;5.596;2023-09-19T01:51:46;13.32;;;12.27;;
19521;SDS011;9905;52.126;5.596;2023-09-19T01:54:22;12.15;;;11.43;;
19521;SDS011;9905;52.126;5.596;2023-09-19T01:56:54;13.45;;;12.63;;
19521;SDS011;9905;52.126;5.596;2023-09-19T01:59:31;13.40;;;12.50;;
19521;SDS011;9905;52.126;5.596;2023-09-19T02:02:04;13.75;;;12.63;;
19521;SDS011;9905;52.126;5.596;2023-09-19T02:04:33;11.88;;;11.27;;
19521;SDS011;9905;52.126;5.596;2023-09-19T02:07:00;13.38;;;12.25;;
19521;SDS011;9905;52.126;5.596;2023-09-19T02:09:30;13.05;;;12.02;;
19521;SDS011;9905;52.126;5.596;2023-09-19T02:12:00;11.88;;;11.13;;
19521;SDS011;9905;52.126;5.596;2023-09-19T02:14:27;11.65;;;10.80;;
19521;SDS011;9905;52.126;5.596;2023-09-19T02:16:54;11.48;;;10.30;;
19521;SDS011;9905;52.126;5.596;2023-09-19T02:19:22;11.50;;;10.60;;
19521;SDS011;9905;52.126;5.596;2023-09-19T02:21:49;10.13;;;9.50;;
19521;SDS011;9905;52.126;5.596;2023-09-19T02:24:16;10.07;;;9.52;;
19521;SDS011;9905;52.126;5.596;2023-09-19T02:26:44;11.85;;;10.05;;
19521;SDS011;9905;52.126;5.596;2023-09-19T02:29:11;9.82;;;8.80;;
19521;SDS011;9905;52.126;5.596;2023-09-19T02:31:38;12.40;;;9.93;;
19521;SDS011;9905;52.126;5.596;2023-09-19T02:34:05;9.77;;;8.50;;
19521;SDS011;9905;52.126;5.596;2023-09-19T02:36:33;13.82;;;8.65;;
19521;SDS011;9905;52.126;5.596;2023-09-19T02:39:00;10.57;;;9.07;;
19521;SDS011;9905;52.126;5.596;2023-09-19T02:41:26;9.95;;;9.15;;
19521;SDS011;9905;52.126;5.596;2023-09-19T02:43:54;10.15;;;8.60;;
19521;SDS011;9905;52.126;5.596;2023-09-19T02:46:22;13.07;;;8.93;;
19521;SDS011;9905;52.126;5.596;2023-09-19T02:48:48;11.23;;;8.65;;
19521;SDS011;9905;52.126;5.596;2023-09-19T02:51:15;9.65;;;8.90;;
19521;SDS011;9905;52.126;5.596;2023-09-19T02:53:43;8.85;;;8.10;;
19521;SDS011;9905;52.126;5.596;2023-09-19T02:56:12;9.25;;;8.10;;
19521;SDS011;9905;52.126;5.596;2023-09-19T02:58:40;8.88;;;8.07;;
19521;SDS011;9905;52.126;5.596;2023-09-19T03:01:08;11.60;;;8.60;;
19521;SDS011;9905;52.126;5.596;2023-09-19T03:03:36;8.40;;;7.82;;
19521;SDS011;9905;52.126;5.596;2023-09-19T03:06:04;9.68;;;8.50;;
19521;SDS011;9905;52.126;5.596;2023-09-19T03:08:33;9.05;;;7.70;;
19521;SDS011;9905;52.126;5.596;2023-09-19T03:11:02;7.70;;;7.07;;
19521;SDS011;9905;52.126;5.596;2023-09-19T03:13:30;8.48;;;6.75;;
19521;SDS011;9905;52.126;5.596;2023-09-19T03:15:57;8.45;;;7.50;;
19521;SDS011;9905;52.126;5.596;2023-09-19T03:18:24;7.80;;;7.20;;
19521;SDS011;9905;52.126;5.596;2023-09-19T03:20:52;11.27;;;8.13;;
19521;SDS011;9905;52.126;5.596;2023-09-19T03:23:20;12.57;;;6.78;;
19521;SDS011;9905;52.126;5.596;2023-09-19T03:25:47;9.48;;;7.05;;
19521;SDS011;9905;52.126;5.596;2023-09-19T03:28:15;8.02;;;6.47;;
19521;SDS011;9905;52.126;5.596;2023-09-19T03:30:42;9.07;;;6.82;;
19521;SDS011;9905;52.126;5.596;2023-09-19T03:33:09;6.57;;;5.95;;
19521;SDS011;9905;52.126;5.596;2023-09-19T03:35:37;13.25;;;6.38;;
19521;SDS011;9905;52.126;5.596;2023-09-19T03:38:05;6.97;;;6.47;;
19521;SDS011;9905;52.126;5.596;2023-09-19T03:40:32;6.70;;;6.28;;
19521;SDS011;9905;52.126;5.596;2023-09-19T03:43:00;10.02;;;6.22;;
19521;SDS011;9905;52.126;5.596;2023-09-19T03:45:28;8.38;;;6.75;;
19521;SDS011;9905;52.126;5.596;2023-09-19T03:47:56;8.63;;;6.25;;
19521;SDS011;9905;52.126;5.596;2023-09-19T03:50:23;9.63;;;7.45;;
19521;SDS011;9905;52.126;5.596;2023-09-19T03:52:50;10.15;;;6.53;;
19521;SDS011;9905;52.126;5.596;2023-09-19T03:55:16;8.43;;;6.47;;
19521;SDS011;9905;52.126;5.596;2023-09-19T03:57:47;8.40;;;6.95;;
19521;SDS011;9905;52.126;5.596;2023-09-19T04:00:14;7.68;;;6.93;;
19521;SDS011;9905;52.126;5.596;2023-09-19T04:02:47;7.40;;;6.68;;
19521;SDS011;9905;52.126;5.596;2023-09-19T04:05:14;8.02;;;6.20;;
19521;SDS011;9905;52.126;5.596;2023-09-19T04:07:41;7.40;;;6.38;;
19521;SDS011;9905;52.126;5.596;2023-09-19T04:10:08;7.00;;;6.30;;
19521;SDS011;9905;52.126;5.596;2023-09-19T04:12:36;8.88;;;6.28;;
19521;SDS011;9905;52.126;5.596;2023-09-19T04:15:04;7.00;;;6.38;;
19521;SDS011;9905;52.126;5.596;2023-09-19T04:17:32;8.02;;;6.05;;
19521;SDS011;9905;52.126;5.596;2023-09-19T04:20:00;6.32;;;5.93;;
19521;SDS011;9905;52.126;5.596;2023-09-19T04:22:29;9.40;;;7.10;;
19521;SDS011;9905;52.126;5.596;2023-09-19T04:24:56;7.93;;;5.93;;
19521;SDS011;9905;52.126;5.596;2023-09-19T04:27:23;8.40;;;6.30;;
19521;SDS011;9905;52.126;5.596;2023-09-19T04:29:49;7.60;;;6.80;;
19521;SDS011;9905;52.126;5.596;2023-09-19T04:32:18;8.35;;;6.57;;
19521;SDS011;9905;52.126;5.596;2023-09-19T04:34:44;7.10;;;6.40;;
19521;SDS011;9905;52.126;5.596;2023-09-19T04:37:16;6.72;;;6.13;;
19521;SDS011;9905;52.126;5.596;2023-09-19T04:39:43;8.40;;;6.25;;
19521;SDS011;9905;52.126;5.596;2023-09-19T04:42:10;8.05;;;6.93;;
19521;SDS011;9905;52.126;5.596;2023-09-19T04:44:39;7.20;;;6.55;;
19521;SDS011;9905;52.126;5.596;2023-09-19T04:47:07;7.78;;;5.85;;
19521;SDS011;9905;52.126;5.596;2023-09-19T04:49:35;8.63;;;6.35;;
19521;SDS011;9905;52.126;5.596;2023-09-19T04:52:02;6.90;;;5.72;;
19521;SDS011;9905;52.126;5.596;2023-09-19T04:54:31;5.75;;;5.25;;
19521;SDS011;9905;52.126;5.596;2023-09-19T04:56:59;15.23;;;6.85;;
19521;SDS011;9905;52.126;5.596;2023-09-19T04:59:26;9.05;;;6.22;;
19521;SDS011;9905;52.126;5.596;2023-09-19T05:01:53;6.43;;;5.93;;
19521;SDS011;9905;52.126;5.596;2023-09-19T05:04:21;7.88;;;6.05;;
19521;SDS011;9905;52.126;5.596;2023-09-19T05:06:47;8.65;;;5.72;;
19521;SDS011;9905;52.126;5.596;2023-09-19T05:09:14;10.10;;;5.90;;
19521;SDS011;9905;52.126;5.596;2023-09-19T05:11:43;6.30;;;5.63;;
19521;SDS011;9905;52.126;5.596;2023-09-19T05:14:09;6.40;;;5.80;;
19521;SDS011;9905;52.126;5.596;2023-09-19T05:16:36;8.38;;;6.25;;
19521;SDS011;9905;52.126;5.596;2023-09-19T05:19:03;6.60;;;5.88;;
19521;SDS011;9905;52.126;5.596;2023-09-19T05:21:30;8.00;;;5.55;;
19521;SDS011;9905;52.126;5.596;2023-09-19T05:23:58;10.10;;;6.72;;
19521;SDS011;9905;52.126;5.596;2023-09-19T05:26:25;6.78;;;6.15;;
19521;SDS011;9905;52.126;5.596;2023-09-19T05:28:53;6.03;;;5.50;;
19521;SDS011;9905;52.126;5.596;2023-09-19T05:31:20;5.93;;;5.55;;
19521;SDS011;9905;52.126;5.596;2023-09-19T05:33:48;10.13;;;5.70;;
19521;SDS011;9905;52.126;5.596;2023-09-19T05:36:15;10.00;;;5.55;;
19521;SDS011;9905;52.126;5.596;2023-09-19T05:38:42;6.75;;;5.70;;
19521;SDS011;9905;52.126;5.596;2023-09-19T05:41:09;6.68;;;6.00;;
19521;SDS011;9905;52.126;5.596;2023-09-19T05:43:38;10.18;;;7.30;;
19521;SDS011;9905;52.126;5.596;2023-09-19T05:46:07;6.88;;;6.20;;
19521;SDS011;9905;52.126;5.596;2023-09-19T05:48:34;6.15;;;5.70;;
19521;SDS011;9905;52.126;5.596;2023-09-19T05:51:01;7.78;;;5.68;;
19521;SDS011;9905;52.126;5.596;2023-09-19T05:53:27;14.27;;;6.63;;
19521;SDS011;9905;52.126;5.596;2023-09-19T05:55:55;10.75;;;7.18;;
19521;SDS011;9905;52.126;5.596;2023-09-19T05:58:21;12.40;;;6.10;;
19521;SDS011;9905;52.126;5.596;2023-09-19T06:00:48;15.00;;;5.78;;
19521;SDS011;9905;52.126;5.596;2023-09-19T06:03:17;6.90;;;6.15;;
19521;SDS011;9905;52.126;5.596;2023-09-19T06:05:45;8.20;;;5.60;;
19521;SDS011;9905;52.126;5.596;2023-09-19T06:08:14;7.25;;;5.55;;
19521;SDS011;9905;52.126;5.596;2023-09-19T06:10:41;6.50;;;5.60;;
19521;SDS011;9905;52.126;5.596;2023-09-19T06:13:08;8.43;;;6.28;;
19521;SDS011;9905;52.126;5.596;2023-09-19T06:15:35;5.95;;;5.47;;
19521;SDS011;9905;52.126;5.596;2023-09-19T06:18:02;7.97;;;6.18;;
19521;SDS011;9905;52.126;5.596;2023-09-19T06:20:32;7.57;;;5.80;;
19521;SDS011;9905;52.126;5.596;2023-09-19T06:22:59;7.40;;;6.50;;
19521;SDS011;9905;52.126;5.596;2023-09-19T06:25:27;6.18;;;5.78;;
19521;SDS011;9905;52.126;5.596;2023-09-19T06:27:54;9.00;;;5.35;;
19521;SDS011;9905;52.126;5.596;2023-09-19T06:30:21;6.63;;;6.00;;
19521;SDS011;9905;52.126;5.596;2023-09-19T06:32:49;7.90;;;6.13;;
19521;SDS011;9905;52.126;5.596;2023-09-19T06:35:21;8.25;;;5.78;;
19521;SDS011;9905;52.126;5.596;2023-09-19T06:37:49;5.88;;;5.38;;
19521;SDS011;9905;52.126;5.596;2023-09-19T06:40:16;9.25;;;6.10;;
19521;SDS011;9905;52.126;5.596;2023-09-19T06:42:43;7.95;;;6.28;;
19521;SDS011;9905;52.126;5.596;2023-09-19T06:45:11;5.88;;;5.47;;
19521;SDS011;9905;52.126;5.596;2023-09-19T06:47:38;11.13;;;5.68;;
19521;SDS011;9905;52.126;5.596;2023-09-19T06:50:05;6.07;;;5.55;;
19521;SDS011;9905;52.126;5.596;2023-09-19T06:52:38;8.73;;;5.22;;
19521;SDS011;9905;52.126;5.596;2023-09-19T06:55:06;8.77;;;6.03;;
19521;SDS011;9905;52.126;5.596;2023-09-19T06:57:34;14.15;;;5.80;;
19521;SDS011;9905;52.126;5.596;2023-09-19T07:00:01;7.85;;;6.10;;
19521;SDS011;9905;52.126;5.596;2023-09-19T07:02:33;7.13;;;5.70;;
19521;SDS011;9905;52.126;5.596;2023-09-19T07:05:00;7.88;;;6.15;;
19521;SDS011;9905;52.126;5.596;2023-09-19T07:07:27;9.70;;;6.60;;
19521;SDS011;9905;52.126;5.596;2023-09-19T07:09:54;8.75;;;6.03;;
19521;SDS011;9905;52.126;5.596;2023-09-19T07:12:23;7.47;;;5.43;;
19521;SDS011;9905;52.126;5.596;2023-09-19T07:14:49;7.90;;;5.80;;
19521;SDS011;9905;52.126;5.596;2023-09-19T07:17:16;7.05;;;6.18;;
19521;SDS011;9905;52.126;5.596;2023-09-19T07:19:44;6.70;;;5.85;;
19521;SDS011;9905;52.126;5.596;2023-09-19T07:22:11;10.50;;;6.07;;
19521;SDS011;9905;52.126;5.596;2023-09-19T07:24:38;7.40;;;6.15;;
19521;SDS011;9905;52.126;5.596;2023-09-19T07:27:05;6.75;;;5.75;;
19521;SDS011;9905;52.126;5.596;2023-09-19T07:29:33;6.43;;;5.88;;
19521;SDS011;9905;52.126;5.596;2023-09-19T07:32:00;11.35;;;6.68;;
19521;SDS011;9905;52.126;5.596;2023-09-19T07:34:27;10.48;;;5.88;;
19521;SDS011;9905;52.126;5.596;2023-09-19T07:36:54;7.40;;;6.03;;
19521;SDS011;9905;52.126;5.596;2023-09-19T07:39:21;8.27;;;5.78;;
19521;SDS011;9905;52.126;5.596;2023-09-19T07:41:49;13.50;;;5.88;;
19521;SDS011;9905;52.126;5.596;2023-09-19T07:44:16;7.90;;;5.78;;
19521;SDS011;9905;52.126;5.596;2023-09-19T07:46:44;11.50;;;5.70;;
19521;SDS011;9905;52.126;5.596;2023-09-19T07:49:11;9.73;;;6.03;;
19521;SDS011;9905;52.126;5.596;2023-09-19T07:51:38;11.20;;;5.25;;
19521;SDS011;9905;52.126;5.596;2023-09-19T07:54:05;6.97;;;5.88;;
19521;SDS011;9905;52.126;5.596;2023-09-19T07:56:33;6.82;;;5.60;;
19521;SDS011;9905;52.126;5.596;2023-09-19T07:58:59;9.32;;;4.88;;
19521;SDS011;9905;52.126;5.596;2023-09-19T08:01:26;6.43;;;5.20;;
19521;SDS011;9905;52.126;5.596;2023-09-19T08:03:55;9.68;;;5.35;;
19521;SDS011;9905;52.126;5.596;2023-09-19T08:06:21;6.55;;;5.30;;
19521;SDS011;9905;52.126;5.596;2023-09-19T08:08:50;7.13;;;4.80;;
19521;SDS011;9905;52.126;5.596;2023-09-19T08:11:18;10.85;;;5.38;;
19521;SDS011;9905;52.126;5.596;2023-09-19T08:13:46;6.47;;;5.13;;
19521;SDS011;9905;52.126;5.596;2023-09-19T08:16:13;11.73;;;5.57;;
19521;SDS011;9905;52.126;5.596;2023-09-19T08:18:41;8.18;;;6.18;;
19521;SDS011;9905;52.126;5.596;2023-09-19T08:21:11;9.43;;;5.03;;
19521;SDS011;9905;52.126;5.596;2023-09-19T08:23:39;10.00;;;5.15;;
19521;SDS011;9905;52.126;5.596;2023-09-19T08:26:07;5.35;;;4.75;;
19521;SDS011;9905;52.126;5.596;2023-09-19T08:28:34;5.20;;;4.70;;
19521;SDS011;9905;52.126;5.596;2023-09-19T08:31:01;7.53;;;5.25;;
19521;SDS011;9905;52.126;5.596;2023-09-19T08:33:31;7.10;;;4.78;;
19521;SDS011;9905;52.126;5.596;2023-09-19T08:35:58;7.80;;;5.72;;
19521;SDS011;9905;52.126;5.596;2023-09-19T08:38:26;10.48;;;4.72;;
19521;SDS011;9905;52.126;5.596;2023-09-19T08:40:56;10.73;;;5.53;;
19521;SDS011;9905;52.126;5.596;2023-09-19T08:43:24;6.15;;;3.92;;
19521;SDS011;9905;52.126;5.596;2023-09-19T08:45:52;8.63;;;5.00;;
19521;SDS011;9905;52.126;5.596;2023-09-19T08:48:26;8.02;;;4.93;;
19521;SDS011;9905;52.126;5.596;2023-09-19T08:50:56;12.70;;;4.65;;
19521;SDS011;9905;52.126;5.596;2023-09-19T08:53:33;9.10;;;4.38;;
19521;SDS011;9905;52.126;5.596;2023-09-19T08:56:07;8.20;;;4.93;;
19521;SDS011;9905;52.126;5.596;2023-09-19T08:58:39;7.40;;;4.50;;
19521;SDS011;9905;52.126;5.596;2023-09-19T09:01:09;7.63;;;4.30;;
19521;SDS011;9905;52.126;5.596;2023-09-19T09:03:39;5.63;;;4.30;;
19521;SDS011;9905;52.126;5.596;2023-09-19T09:06:08;5.47;;;4.43;;
19521;SDS011;9905;52.126;5.596;2023-09-19T09:08:39;6.43;;;4.82;;
19521;SDS011;9905;52.126;5.596;2023-09-19T09:11:06;8.40;;;4.57;;
19521;SDS011;9905;52.126;5.596;2023-09-19T09:13:34;5.03;;;4.05;;
19521;SDS011;9905;52.126;5.596;2023-09-19T09:16:02;5.75;;;4.13;;
19521;SDS011;9905;52.126;5.596;2023-09-19T09:18:29;7.53;;;3.70;;
19521;SDS011;9905;52.126;5.596;2023-09-19T09:20:56;5.40;;;3.95;;
19521;SDS011;9905;52.126;5.596;2023-09-19T09:23:22;7.65;;;3.72;;
19521;SDS011;9905;52.126;5.596;2023-09-19T09:25:52;5.13;;;3.90;;
19521;SDS011;9905;52.126;5.596;2023-09-19T09:28:25;4.53;;;3.63;;
19521;SDS011;9905;52.126;5.596;2023-09-19T09:30:53;7.22;;;4.10;;
19521;SDS011;9905;52.126;5.596;2023-09-19T09:33:20;7.65;;;3.58;;
19521;SDS011;9905;52.126;5.596;2023-09-19T09:35:48;6.30;;;3.88;;
19521;SDS011;9905;52.126;5.596;2023-09-19T09:38:17;6.82;;;3.83;;
19521;SDS011;9905;52.126;5.596;2023-09-19T09:40:48;7.63;;;3.70;;
19521;SDS011;9905;52.126;5.596;2023-09-19T09:43:28;9.52;;;4.13;;
19521;SDS011;9905;52.126;5.596;2023-09-19T09:49:05;9.30;;;3.92;;
19521;SDS011;9905;52.126;5.596;2023-09-19T09:51:50;6.50;;;3.78;;
19521;SDS011;9905;52.126;5.596;2023-09-19T09:54:26;7.90;;;3.50;;
19521;SDS011;9905;52.126;5.596;2023-09-19T09:56:59;6.18;;;3.60;;
19521;SDS011;9905;52.126;5.596;2023-09-19T09:59:46;7.50;;;3.85;;
19521;SDS011;9905;52.126;5.596;2023-09-19T10:02:14;6.85;;;3.85;;
19521;SDS011;9905;52.126;5.596;2023-09-19T10:04:47;9.70;;;4.25;;
19521;SDS011;9905;52.126;5.596;2023-09-19T10:07:26;5.57;;;3.85;;
19521;SDS011;9905;52.126;5.596;2023-09-19T10:09:57;6.00;;;3.97;;
19521;SDS011;9905;52.126;5.596;2023-09-19T10:12:34;11.43;;;4.07;;
19521;SDS011;9905;52.126;5.596;2023-09-19T10:15:07;6.90;;;3.70;;
19521;SDS011;9905;52.126;5.596;2023-09-19T10:17:37;12.00;;;4.13;;
19521;SDS011;9905;52.126;5.596;2023-09-19T10:20:08;7.05;;;3.72;;
19521;SDS011;9905;52.126;5.596;2023-09-19T10:22:47;8.45;;;4.80;;
19521;SDS011;9905;52.126;5.596;2023-09-19T10:25:24;8.68;;;3.78;;
19521;SDS011;9905;52.126;5.596;2023-09-19T10:27:53;7.40;;;3.85;;
19521;SDS011;9905;52.126;5.596;2023-09-19T10:30:24;5.90;;;3.15;;
19521;SDS011;9905;52.126;5.596;2023-09-19T10:32:57;9.45;;;4.38;;
19521;SDS011;9905;52.126;5.596;2023-09-19T10:35:28;6.53;;;3.10;;
19521;SDS011;9905;52.126;5.596;2023-09-19T10:37:57;5.97;;;3.35;;
19521;SDS011;9905;52.126;5.596;2023-09-19T10:40:26;7.88;;;3.67;;
19521;SDS011;9905;52.126;5.596;2023-09-19T10:42:58;6.38;;;3.67;;
19521;SDS011;9905;52.126;5.596;2023-09-19T10:45:32;6.10;;;3.60;;
19521;SDS011;9905;52.126;5.596;2023-09-19T10:48:00;8.88;;;3.78;;
19521;SDS011;9905;52.126;5.596;2023-09-19T10:50:30;3.65;;;3.33;;
19521;SDS011;9905;52.126;5.596;2023-09-19T10:52:59;6.32;;;3.63;;
19521;SDS011;9905;52.126;5.596;2023-09-19T10:55:30;6.93;;;3.83;;
19521;SDS011;9905;52.126;5.596;2023-09-19T10:57:58;4.65;;;3.20;;
19521;SDS011;9905;52.126;5.596;2023-09-19T11:00:28;6.15;;;3.50;;
19521;SDS011;9905;52.126;5.596;2023-09-19T11:03:17;5.50;;;3.35;;
19521;SDS011;9905;52.126;5.596;2023-09-19T11:06:00;5.72;;;3.80;;
19521;SDS011;9905;52.126;5.596;2023-09-19T11:08:30;5.30;;;4.07;;
19521;SDS011;9905;52.126;5.596;2023-09-19T11:14:30;4.03;;;3.63;;
19521;SDS011;9905;52.126;5.596;2023-09-19T11:20:20;5.07;;;3.63;;
19521;SDS011;9905;52.126;5.596;2023-09-19T11:25:49;5.22;;;3.22;;
19521;SDS011;9905;52.126;5.596;2023-09-19T11:28:31;5.85;;;3.22;;
19521;SDS011;9905;52.126;5.596;2023-09-19T11:40:33;6.68;;;3.10;;
19521;SDS011;9905;52.126;5.596;2023-09-19T11:43:00;4.82;;;3.10;;
19521;SDS011;9905;52.126;5.596;2023-09-19T11:46:05;7.15;;;3.28;;
19521;SDS011;9905;52.126;5.596;2023-09-19T11:48:36;2.92;;;2.72;;
19521;SDS011;9905;52.126;5.596;2023-09-19T11:51:12;4.03;;;2.65;;
19521;SDS011;9905;52.126;5.596;2023-09-19T11:53:47;2.83;;;2.60;;
19521;SDS011;9905;52.126;5.596;2023-09-19T11:56:17;3.97;;;3.45;;
19521;SDS011;9905;52.126;5.596;2023-09-19T11:58:46;3.75;;;2.72;;
19521;SDS011;9905;52.126;5.596;2023-09-19T12:01:21;3.60;;;2.35;;
19521;SDS011;9905;52.126;5.596;2023-09-19T12:03:52;3.80;;;2.67;;
19521;SDS011;9905;52.126;5.596;2023-09-19T12:06:19;5.57;;;3.08;;
19521;SDS011;9905;52.126;5.596;2023-09-19T12:08:47;3.88;;;2.50;;
19521;SDS011;9905;52.126;5.596;2023-09-19T12:11:15;3.20;;;2.72;;
19521;SDS011;9905;52.126;5.596;2023-09-19T12:13:45;4.75;;;3.08;;
19521;SDS011;9905;52.126;5.596;2023-09-19T12:16:14;5.28;;;2.70;;
19521;SDS011;9905;52.126;5.596;2023-09-19T12:18:42;3.20;;;3.00;;
19521;SDS011;9905;52.126;5.596;2023-09-19T12:21:21;4.07;;;2.88;;
19521;SDS011;9905;52.126;5.596;2023-09-19T12:23:56;2.50;;;2.30;;
19521;SDS011;9905;52.126;5.596;2023-09-19T12:26:30;4.05;;;2.72;;
19521;SDS011;9905;52.126;5.596;2023-09-19T12:29:07;3.00;;;2.40;;
19521;SDS011;9905;52.126;5.596;2023-09-19T12:31:46;4.05;;;2.30;;
19521;SDS011;9905;52.126;5.596;2023-09-19T12:34:23;2.72;;;2.53;;
19521;SDS011;9905;52.126;5.596;2023-09-19T12:39:38;4.80;;;2.63;;
19521;SDS011;9905;52.126;5.596;2023-09-19T12:42:08;5.95;;;2.55;;
19521;SDS011;9905;52.126;5.596;2023-09-19T12:44:37;5.88;;;3.00;;
19521;SDS011;9905;52.126;5.596;2023-09-19T12:47:09;2.60;;;2.40;;
19521;SDS011;9905;52.126;5.596;2023-09-19T12:50:04;2.03;;;1.92;;
19521;SDS011;9905;52.126;5.596;2023-09-19T12:52:38;2.83;;;2.15;;
19521;SDS011;9905;52.126;5.596;2023-09-19T12:55:06;3.00;;;2.80;;
19521;SDS011;9905;52.126;5.596;2023-09-19T12:57:34;2.58;;;2.33;;
19521;SDS011;9905;52.126;5.596;2023-09-19T13:00:01;4.07;;;2.35;;
19521;SDS011;9905;52.126;5.596;2023-09-19T13:02:30;2.60;;;2.35;;
19521;SDS011;9905;52.126;5.596;2023-09-19T13:04:57;3.80;;;2.47;;
19521;SDS011;9905;52.126;5.596;2023-09-19T13:07:46;2.47;;;2.20;;
19521;SDS011;9905;52.126;5.596;2023-09-19T13:10:14;6.43;;;2.58;;
19521;SDS011;9905;52.126;5.596;2023-09-19T13:12:42;2.53;;;2.25;;
19521;SDS011;9905;52.126;5.596;2023-09-19T13:15:12;3.53;;;2.38;;
19521;SDS011;9905;52.126;5.596;2023-09-19T13:17:45;2.55;;;2.10;;
19521;SDS011;9905;52.126;5.596;2023-09-19T13:20:22;2.58;;;2.38;;
19521;SDS011;9905;52.126;5.596;2023-09-19T13:22:54;3.67;;;2.40;;
19521;SDS011;9905;52.126;5.596;2023-09-19T13:25:25;2.80;;;2.60;;
19521;SDS011;9905;52.126;5.596;2023-09-19T13:27:56;4.50;;;2.58;;
19521;SDS011;9905;52.126;5.596;2023-09-19T13:30:25;2.20;;;1.98;;
19521;SDS011;9905;52.126;5.596;2023-09-19T13:33:04;3.55;;;2.30;;
19521;SDS011;9905;52.126;5.596;2023-09-19T13:35:31;2.75;;;2.65;;
19521;SDS011;9905;52.126;5.596;2023-09-19T13:38:00;2.22;;;2.10;;
19521;SDS011;9905;52.126;5.596;2023-09-19T13:40:26;5.28;;;2.42;;
19521;SDS011;9905;52.126;5.596;2023-09-19T13:42:55;3.15;;;1.90;;
19521;SDS011;9905;52.126;5.596;2023-09-19T13:45:22;3.38;;;2.38;;
19521;SDS011;9905;52.126;5.596;2023-09-19T13:47:49;2.95;;;2.70;;
19521;SDS011;9905;52.126;5.596;2023-09-19T13:50:16;3.97;;;2.20;;
19521;SDS011;9905;52.126;5.596;2023-09-19T13:52:48;2.97;;;2.08;;
19521;SDS011;9905;52.126;5.596;2023-09-19T13:55:17;4.13;;;2.45;;
19521;SDS011;9905;52.126;5.596;2023-09-19T13:57:45;2.83;;;2.47;;
19521;SDS011;9905;52.126;5.596;2023-09-19T14:00:12;2.90;;;2.50;;
19521;SDS011;9905;52.126;5.596;2023-09-19T14:02:41;2.25;;;2.10;;
19521;SDS011;9905;52.126;5.596;2023-09-19T14:05:09;3.05;;;1.90;;
19521;SDS011;9905;52.126;5.596;2023-09-19T14:07:37;4.15;;;2.72;;
19521;SDS011;9905;52.126;5.596;2023-09-19T14:10:06;2.85;;;2.65;;
19521;SDS011;9905;52.126;5.596;2023-09-19T14:12:34;2.95;;;2.63;;
19521;SDS011;9905;52.126;5.596;2023-09-19T14:15:02;4.50;;;2.90;;
19521;SDS011;9905;52.126;5.596;2023-09-19T14:17:29;2.70;;;2.45;;
19521;SDS011;9905;52.126;5.596;2023-09-19T14:19:56;6.10;;;2.28;;
19521;SDS011;9905;52.126;5.596;2023-09-19T14:22:22;2.35;;;2.15;;
19521;SDS011;9905;52.126;5.596;2023-09-19T14:24:49;2.22;;;2.13;;
19521;SDS011;9905;52.126;5.596;2023-09-19T14:27:17;3.03;;;2.22;;
19521;SDS011;9905;52.126;5.596;2023-09-19T14:29:45;2.65;;;2.45;;
19521;SDS011;9905;52.126;5.596;2023-09-19T14:32:12;3.95;;;2.38;;
19521;SDS011;9905;52.126;5.596;2023-09-19T14:34:38;2.40;;;2.30;;
19521;SDS011;9905;52.126;5.596;2023-09-19T14:37:07;2.10;;;2.00;;
19521;SDS011;9905;52.126;5.596;2023-09-19T14:39:36;2.45;;;2.25;;
19521;SDS011;9905;52.126;5.596;2023-09-19T14:42:03;2.95;;;2.47;;
19521;SDS011;9905;52.126;5.596;2023-09-19T14:44:30;3.08;;;2.60;;
19521;SDS011;9905;52.126;5.596;2023-09-19T14:46:59;2.80;;;2.35;;
19521;SDS011;9905;52.126;5.596;2023-09-19T14:49:25;2.85;;;2.60;;
19521;SDS011;9905;52.126;5.596;2023-09-19T14:51:52;2.70;;;2.50;;
19521;SDS011;9905;52.126;5.596;2023-09-19T14:54:20;4.57;;;2.50;;
19521;SDS011;9905;52.126;5.596;2023-09-19T14:56:49;2.60;;;2.10;;
19521;SDS011;9905;52.126;5.596;2023-09-19T14:59:28;3.22;;;2.05;;
19521;SDS011;9905;52.126;5.596;2023-09-19T15:01:56;3.35;;;3.00;;
19521;SDS011;9905;52.126;5.596;2023-09-19T15:04:24;6.20;;;2.33;;
19521;SDS011;9905;52.126;5.596;2023-09-19T15:06:51;2.47;;;2.30;;
19521;SDS011;9905;52.126;5.596;2023-09-19T15:09:20;3.95;;;2.75;;
19521;SDS011;9905;52.126;5.596;2023-09-19T15:11:49;2.53;;;2.33;;
19521;SDS011;9905;52.126;5.596;2023-09-19T15:14:17;2.50;;;2.30;;
19521;SDS011;9905;52.126;5.596;2023-09-19T15:16:44;2.88;;;2.72;;
19521;SDS011;9905;52.126;5.596;2023-09-19T15:19:10;7.18;;;2.90;;
19521;SDS011;9905;52.126;5.596;2023-09-19T15:21:38;2.65;;;2.53;;
19521;SDS011;9905;52.126;5.596;2023-09-19T15:24:05;3.55;;;3.05;;
19521;SDS011;9905;52.126;5.596;2023-09-19T15:26:34;4.60;;;2.53;;
19521;SDS011;9905;52.126;5.596;2023-09-19T15:29:04;3.10;;;2.80;;
19521;SDS011;9905;52.126;5.596;2023-09-19T15:31:31;2.60;;;2.40;;
19521;SDS011;9905;52.126;5.596;2023-09-19T15:33:58;3.13;;;2.88;;
19521;SDS011;9905;52.126;5.596;2023-09-19T15:36:25;2.95;;;2.63;;
19521;SDS011;9905;52.126;5.596;2023-09-19T15:38:57;2.70;;;2.50;;